sensor_id;sensor_type;location;lat;lon;timestamp;P1;durP1;ratioP1;P2;durP2;ratioP2
76127;SDS011;64873;50.102;14.434;2023-01-29T00:01:04;3.35;;;2.22;;
76127;SDS011;64873;50.102;14.434;2023-01-29T00:03:30;3.28;;;1.58;;
76127;SDS011;64873;50.102;14.434;2023-01-29T00:05:56;3.90;;;2.70;;
76127;SDS011;64873;50.102;14.434;2023-01-29T00:08:21;5.50;;;2.70;;
76127;SDS011;64873;50.102;14.434;2023-01-29T00:10:47;5.20;;;3.13;;
76127;SDS011;64873;50.102;14.434;2023-01-29T00:13:12;7.07;;;3.70;;
76127;SDS011;64873;50.102;14.434;2023-01-29T00:15:38;4.63;;;3.15;;
76127;SDS011;64873;50.102;14.434;2023-01-29T00:18:03;6.07;;;2.88;;
76127;SDS011;64873;50.102;14.434;2023-01-29T00:20:29;5.90;;;3.08;;
76127;SDS011;64873;50.102;14.434;2023-01-29T00:22:55;5.93;;;3.20;;
76127;SDS011;64873;50.102;14.434;2023-01-29T00:25:21;4.45;;;2.92;;
76127;SDS011;64873;50.102;14.434;2023-01-29T00:27:46;6.90;;;4.00;;
76127;SDS011;64873;50.102;14.434;2023-01-29T00:30:12;8.90;;;3.80;;
76127;SDS011;64873;50.102;14.434;2023-01-29T00:32:40;6.38;;;3.85;;
76127;SDS011;64873;50.102;14.434;2023-01-29T00:35:06;6.45;;;3.13;;
76127;SDS011;64873;50.102;14.434;2023-01-29T00:37:32;3.15;;;2.30;;
76127;SDS011;64873;50.102;14.434;2023-01-29T00:39:57;6.63;;;2.97;;
76127;SDS011;64873;50.102;14.434;2023-01-29T00:42:23;5.90;;;2.50;;
76127;SDS011;64873;50.102;14.434;2023-01-29T00:45:08;6.15;;;3.38;;
76127;SDS011;64873;50.102;14.434;2023-01-29T00:47:34;6.93;;;3.20;;
76127;SDS011;64873;50.102;14.434;2023-01-29T00:50:06;5.63;;;2.80;;
76127;SDS011;64873;50.102;14.434;2023-01-29T00:52:34;5.18;;;3.20;;
76127;SDS011;64873;50.102;14.434;2023-01-29T00:55:05;7.15;;;3.92;;
76127;SDS011;64873;50.102;14.434;2023-01-29T00:57:32;10.68;;;3.70;;
76127;SDS011;64873;50.102;14.434;2023-01-29T00:59:59;8.02;;;2.70;;
76127;SDS011;64873;50.102;14.434;2023-01-29T01:02:25;4.70;;;3.00;;
76127;SDS011;64873;50.102;14.434;2023-01-29T01:05:10;5.28;;;3.38;;
76127;SDS011;64873;50.102;14.434;2023-01-29T01:07:47;6.18;;;3.42;;
76127;SDS011;64873;50.102;14.434;2023-01-29T01:10:16;3.92;;;2.97;;
76127;SDS011;64873;50.102;14.434;2023-01-29T01:12:54;5.63;;;3.25;;
76127;SDS011;64873;50.102;14.434;2023-01-29T01:15:21;7.63;;;3.20;;
76127;SDS011;64873;50.102;14.434;2023-01-29T01:17:52;5.80;;;3.60;;
76127;SDS011;64873;50.102;14.434;2023-01-29T01:20:19;4.47;;;2.42;;
76127;SDS011;64873;50.102;14.434;2023-01-29T01:22:44;7.47;;;3.38;;
76127;SDS011;64873;50.102;14.434;2023-01-29T01:25:10;4.82;;;2.70;;
76127;SDS011;64873;50.102;14.434;2023-01-29T01:27:35;4.05;;;2.95;;
76127;SDS011;64873;50.102;14.434;2023-01-29T01:30:05;5.95;;;2.83;;
76127;SDS011;64873;50.102;14.434;2023-01-29T01:32:35;6.15;;;2.92;;
76127;SDS011;64873;50.102;14.434;2023-01-29T01:35:01;6.13;;;2.80;;
76127;SDS011;64873;50.102;14.434;2023-01-29T01:37:26;4.20;;;2.17;;
76127;SDS011;64873;50.102;14.434;2023-01-29T01:39:52;8.15;;;4.00;;
76127;SDS011;64873;50.102;14.434;2023-01-29T01:42:26;6.35;;;3.35;;
76127;SDS011;64873;50.102;14.434;2023-01-29T01:44:56;6.72;;;3.75;;
76127;SDS011;64873;50.102;14.434;2023-01-29T01:47:42;6.25;;;3.53;;
76127;SDS011;64873;50.102;14.434;2023-01-29T01:50:17;5.30;;;2.70;;
76127;SDS011;64873;50.102;14.434;2023-01-29T01:52:48;6.88;;;3.65;;
76127;SDS011;64873;50.102;14.434;2023-01-29T01:55:18;6.43;;;4.07;;
76127;SDS011;64873;50.102;14.434;2023-01-29T01:57:47;6.85;;;4.43;;
76127;SDS011;64873;50.102;14.434;2023-01-29T02:00:17;2.60;;;2.13;;
76127;SDS011;64873;50.102;14.434;2023-01-29T02:02:45;6.82;;;4.72;;
76127;SDS011;64873;50.102;14.434;2023-01-29T02:05:31;7.25;;;4.05;;
76127;SDS011;64873;50.102;14.434;2023-01-29T02:11:53;6.90;;;3.85;;
76127;SDS011;64873;50.102;14.434;2023-01-29T02:14:20;6.05;;;3.28;;
76127;SDS011;64873;50.102;14.434;2023-01-29T02:16:46;8.73;;;4.45;;
76127;SDS011;64873;50.102;14.434;2023-01-29T02:19:15;6.60;;;4.25;;
76127;SDS011;64873;50.102;14.434;2023-01-29T02:22:06;3.83;;;2.78;;
76127;SDS011;64873;50.102;14.434;2023-01-29T02:25:00;11.68;;;5.97;;
76127;SDS011;64873;50.102;14.434;2023-01-29T02:30:57;7.40;;;4.38;;
76127;SDS011;64873;50.102;14.434;2023-01-29T02:33:39;6.57;;;3.63;;
76127;SDS011;64873;50.102;14.434;2023-01-29T02:47:03;12.68;;;5.93;;
76127;SDS011;64873;50.102;14.434;2023-01-29T02:49:41;10.73;;;5.38;;
76127;SDS011;64873;50.102;14.434;2023-01-29T02:54:56;9.05;;;6.22;;
76127;SDS011;64873;50.102;14.434;2023-01-29T02:57:28;17.30;;;7.78;;
76127;SDS011;64873;50.102;14.434;2023-01-29T03:06:02;10.38;;;5.63;;
76127;SDS011;64873;50.102;14.434;2023-01-29T03:08:41;7.88;;;4.22;;
76127;SDS011;64873;50.102;14.434;2023-01-29T03:11:10;9.60;;;6.28;;
76127;SDS011;64873;50.102;14.434;2023-01-29T03:16:13;15.15;;;6.85;;
76127;SDS011;64873;50.102;14.434;2023-01-29T03:18:45;14.48;;;7.63;;
76127;SDS011;64873;50.102;14.434;2023-01-29T03:21:27;15.02;;;7.70;;
76127;SDS011;64873;50.102;14.434;2023-01-29T03:24:15;14.07;;;6.78;;
76127;SDS011;64873;50.102;14.434;2023-01-29T03:27:04;12.70;;;6.90;;
76127;SDS011;64873;50.102;14.434;2023-01-29T03:29:53;10.57;;;6.43;;
76127;SDS011;64873;50.102;14.434;2023-01-29T03:32:39;10.75;;;6.22;;
76127;SDS011;64873;50.102;14.434;2023-01-29T03:35:07;11.90;;;7.63;;
76127;SDS011;64873;50.102;14.434;2023-01-29T03:37:44;15.80;;;7.93;;
76127;SDS011;64873;50.102;14.434;2023-01-29T03:40:12;14.48;;;8.07;;
76127;SDS011;64873;50.102;14.434;2023-01-29T03:45:12;13.57;;;8.02;;
76127;SDS011;64873;50.102;14.434;2023-01-29T03:56:20;13.45;;;7.97;;
76127;SDS011;64873;50.102;14.434;2023-01-29T04:01:40;12.60;;;6.13;;
76127;SDS011;64873;50.102;14.434;2023-01-29T04:04:23;16.55;;;8.13;;
76127;SDS011;64873;50.102;14.434;2023-01-29T04:06:51;10.85;;;6.13;;
76127;SDS011;64873;50.102;14.434;2023-01-29T04:09:23;11.75;;;7.60;;
76127;SDS011;64873;50.102;14.434;2023-01-29T04:11:53;12.80;;;8.13;;
76127;SDS011;64873;50.102;14.434;2023-01-29T04:14:26;14.20;;;8.13;;
76127;SDS011;64873;50.102;14.434;2023-01-29T04:16:52;8.27;;;4.38;;
76127;SDS011;64873;50.102;14.434;2023-01-29T04:19:21;14.88;;;7.15;;
76127;SDS011;64873;50.102;14.434;2023-01-29T04:21:48;11.27;;;6.43;;
76127;SDS011;64873;50.102;14.434;2023-01-29T04:24:16;10.60;;;5.47;;
76127;SDS011;64873;50.102;14.434;2023-01-29T04:26:54;16.15;;;7.85;;
76127;SDS011;64873;50.102;14.434;2023-01-29T04:32:27;16.05;;;8.43;;
76127;SDS011;64873;50.102;14.434;2023-01-29T04:35:10;11.48;;;6.38;;
76127;SDS011;64873;50.102;14.434;2023-01-29T04:40:50;7.38;;;5.07;;
76127;SDS011;64873;50.102;14.434;2023-01-29T04:46:45;13.57;;;7.03;;
76127;SDS011;64873;50.102;14.434;2023-01-29T04:55:21;10.60;;;6.75;;
76127;SDS011;64873;50.102;14.434;2023-01-29T04:57:53;12.88;;;6.68;;
76127;SDS011;64873;50.102;14.434;2023-01-29T05:01:03;12.25;;;6.65;;
76127;SDS011;64873;50.102;14.434;2023-01-29T05:03:21;12.38;;;7.22;;
76127;SDS011;64873;50.102;14.434;2023-01-29T05:05:49;7.85;;;5.18;;
76127;SDS011;64873;50.102;14.434;2023-01-29T05:08:16;12.13;;;6.38;;
76127;SDS011;64873;50.102;14.434;2023-01-29T05:10:45;12.18;;;7.47;;
76127;SDS011;64873;50.102;14.434;2023-01-29T05:13:13;14.02;;;8.35;;
76127;SDS011;64873;50.102;14.434;2023-01-29T05:16:13;10.60;;;7.10;;
76127;SDS011;64873;50.102;14.434;2023-01-29T05:18:40;11.48;;;7.00;;
76127;SDS011;64873;50.102;14.434;2023-01-29T05:21:06;16.50;;;6.80;;
76127;SDS011;64873;50.102;14.434;2023-01-29T05:23:33;13.73;;;7.13;;
76127;SDS011;64873;50.102;14.434;2023-01-29T05:25:59;9.73;;;5.57;;
76127;SDS011;64873;50.102;14.434;2023-01-29T05:28:24;10.63;;;6.45;;
76127;SDS011;64873;50.102;14.434;2023-01-29T05:30:51;13.52;;;7.43;;
76127;SDS011;64873;50.102;14.434;2023-01-29T05:33:22;13.05;;;6.35;;
76127;SDS011;64873;50.102;14.434;2023-01-29T05:35:52;13.07;;;7.18;;
76127;SDS011;64873;50.102;14.434;2023-01-29T05:38:19;11.02;;;5.47;;
76127;SDS011;64873;50.102;14.434;2023-01-29T05:40:45;9.40;;;5.95;;
76127;SDS011;64873;50.102;14.434;2023-01-29T05:43:20;8.82;;;5.88;;
76127;SDS011;64873;50.102;14.434;2023-01-29T05:45:59;8.13;;;5.15;;
76127;SDS011;64873;50.102;14.434;2023-01-29T05:48:25;9.25;;;5.45;;
76127;SDS011;64873;50.102;14.434;2023-01-29T05:51:02;8.77;;;5.30;;
76127;SDS011;64873;50.102;14.434;2023-01-29T05:53:29;7.57;;;5.15;;
76127;SDS011;64873;50.102;14.434;2023-01-29T05:55:55;8.68;;;5.53;;
76127;SDS011;64873;50.102;14.434;2023-01-29T05:58:21;8.80;;;5.60;;
76127;SDS011;64873;50.102;14.434;2023-01-29T06:00:46;9.18;;;5.95;;
76127;SDS011;64873;50.102;14.434;2023-01-29T06:03:12;11.07;;;5.60;;
76127;SDS011;64873;50.102;14.434;2023-01-29T06:05:37;6.68;;;4.38;;
76127;SDS011;64873;50.102;14.434;2023-01-29T06:08:03;9.23;;;5.25;;
76127;SDS011;64873;50.102;14.434;2023-01-29T06:10:29;8.25;;;5.30;;
76127;SDS011;64873;50.102;14.434;2023-01-29T06:12:54;9.10;;;5.38;;
76127;SDS011;64873;50.102;14.434;2023-01-29T06:15:20;9.15;;;5.30;;
76127;SDS011;64873;50.102;14.434;2023-01-29T06:17:45;9.10;;;5.68;;
76127;SDS011;64873;50.102;14.434;2023-01-29T06:20:11;9.93;;;5.85;;
76127;SDS011;64873;50.102;14.434;2023-01-29T06:22:37;11.35;;;5.38;;
76127;SDS011;64873;50.102;14.434;2023-01-29T06:25:03;10.50;;;5.85;;
76127;SDS011;64873;50.102;14.434;2023-01-29T06:27:28;7.82;;;4.70;;
76127;SDS011;64873;50.102;14.434;2023-01-29T06:29:54;8.27;;;5.38;;
76127;SDS011;64873;50.102;14.434;2023-01-29T06:32:19;7.90;;;4.15;;
76127;SDS011;64873;50.102;14.434;2023-01-29T06:34:45;7.68;;;5.13;;
76127;SDS011;64873;50.102;14.434;2023-01-29T06:37:11;10.02;;;5.18;;
76127;SDS011;64873;50.102;14.434;2023-01-29T06:39:36;5.45;;;3.65;;
76127;SDS011;64873;50.102;14.434;2023-01-29T06:42:01;7.45;;;4.38;;
76127;SDS011;64873;50.102;14.434;2023-01-29T06:44:27;8.60;;;5.50;;
76127;SDS011;64873;50.102;14.434;2023-01-29T06:46:52;8.10;;;4.70;;
76127;SDS011;64873;50.102;14.434;2023-01-29T06:49:18;7.50;;;4.95;;
76127;SDS011;64873;50.102;14.434;2023-01-29T06:51:43;6.15;;;4.93;;
76127;SDS011;64873;50.102;14.434;2023-01-29T06:54:09;5.75;;;3.75;;
76127;SDS011;64873;50.102;14.434;2023-01-29T06:56:35;8.40;;;5.00;;
76127;SDS011;64873;50.102;14.434;2023-01-29T06:59:00;7.10;;;4.50;;
76127;SDS011;64873;50.102;14.434;2023-01-29T07:01:26;10.13;;;5.53;;
76127;SDS011;64873;50.102;14.434;2023-01-29T07:03:52;8.90;;;5.03;;
76127;SDS011;64873;50.102;14.434;2023-01-29T07:06:17;8.38;;;4.20;;
76127;SDS011;64873;50.102;14.434;2023-01-29T07:08:43;7.63;;;4.65;;
76127;SDS011;64873;50.102;14.434;2023-01-29T07:11:09;4.82;;;3.00;;
76127;SDS011;64873;50.102;14.434;2023-01-29T07:13:35;7.82;;;5.07;;
76127;SDS011;64873;50.102;14.434;2023-01-29T07:16:02;7.90;;;4.43;;
76127;SDS011;64873;50.102;14.434;2023-01-29T07:18:28;7.93;;;4.78;;
76127;SDS011;64873;50.102;14.434;2023-01-29T07:20:55;5.82;;;4.30;;
76127;SDS011;64873;50.102;14.434;2023-01-29T07:23:21;7.45;;;4.82;;
76127;SDS011;64873;50.102;14.434;2023-01-29T07:25:46;8.45;;;5.35;;
76127;SDS011;64873;50.102;14.434;2023-01-29T07:28:14;6.65;;;4.78;;
76127;SDS011;64873;50.102;14.434;2023-01-29T07:30:43;6.57;;;4.30;;
76127;SDS011;64873;50.102;14.434;2023-01-29T07:33:09;4.53;;;2.95;;
76127;SDS011;64873;50.102;14.434;2023-01-29T07:35:36;5.63;;;3.47;;
76127;SDS011;64873;50.102;14.434;2023-01-29T07:38:06;4.38;;;3.15;;
76127;SDS011;64873;50.102;14.434;2023-01-29T07:40:32;8.93;;;3.65;;
76127;SDS011;64873;50.102;14.434;2023-01-29T07:43:01;7.45;;;4.30;;
76127;SDS011;64873;50.102;14.434;2023-01-29T07:45:29;8.57;;;4.28;;
76127;SDS011;64873;50.102;14.434;2023-01-29T07:47:54;5.82;;;3.80;;
76127;SDS011;64873;50.102;14.434;2023-01-29T07:50:21;7.70;;;4.93;;
76127;SDS011;64873;50.102;14.434;2023-01-29T07:52:48;6.20;;;4.63;;
76127;SDS011;64873;50.102;14.434;2023-01-29T07:55:13;7.03;;;3.92;;
76127;SDS011;64873;50.102;14.434;2023-01-29T07:57:39;4.55;;;2.92;;
76127;SDS011;64873;50.102;14.434;2023-01-29T08:00:06;6.30;;;3.10;;
76127;SDS011;64873;50.102;14.434;2023-01-29T08:02:32;6.38;;;3.80;;
76127;SDS011;64873;50.102;14.434;2023-01-29T08:04:57;4.72;;;3.40;;
76127;SDS011;64873;50.102;14.434;2023-01-29T08:07:23;6.05;;;3.78;;
76127;SDS011;64873;50.102;14.434;2023-01-29T08:09:49;9.25;;;4.53;;
76127;SDS011;64873;50.102;14.434;2023-01-29T08:12:14;7.20;;;3.38;;
76127;SDS011;64873;50.102;14.434;2023-01-29T08:14:40;3.95;;;2.85;;
76127;SDS011;64873;50.102;14.434;2023-01-29T08:17:05;6.32;;;2.50;;
76127;SDS011;64873;50.102;14.434;2023-01-29T08:19:30;6.05;;;4.38;;
76127;SDS011;64873;50.102;14.434;2023-01-29T08:21:56;7.35;;;4.75;;
76127;SDS011;64873;50.102;14.434;2023-01-29T08:24:21;7.30;;;3.13;;
76127;SDS011;64873;50.102;14.434;2023-01-29T08:26:47;6.10;;;3.75;;
76127;SDS011;64873;50.102;14.434;2023-01-29T08:29:12;5.70;;;4.13;;
76127;SDS011;64873;50.102;14.434;2023-01-29T08:31:38;6.70;;;4.80;;
76127;SDS011;64873;50.102;14.434;2023-01-29T08:34:03;6.55;;;3.55;;
76127;SDS011;64873;50.102;14.434;2023-01-29T08:36:28;10.13;;;5.30;;
76127;SDS011;64873;50.102;14.434;2023-01-29T08:38:54;6.82;;;4.82;;
76127;SDS011;64873;50.102;14.434;2023-01-29T08:41:19;6.07;;;3.92;;
76127;SDS011;64873;50.102;14.434;2023-01-29T08:43:45;9.60;;;4.97;;
76127;SDS011;64873;50.102;14.434;2023-01-29T08:46:10;8.77;;;4.68;;
76127;SDS011;64873;50.102;14.434;2023-01-29T08:48:36;7.45;;;4.40;;
76127;SDS011;64873;50.102;14.434;2023-01-29T08:51:01;9.52;;;5.13;;
76127;SDS011;64873;50.102;14.434;2023-01-29T08:53:28;5.75;;;3.70;;
76127;SDS011;64873;50.102;14.434;2023-01-29T08:55:53;9.27;;;4.95;;
76127;SDS011;64873;50.102;14.434;2023-01-29T08:58:19;7.47;;;4.45;;
76127;SDS011;64873;50.102;14.434;2023-01-29T09:00:44;10.48;;;5.32;;
76127;SDS011;64873;50.102;14.434;2023-01-29T09:03:10;6.07;;;3.63;;
76127;SDS011;64873;50.102;14.434;2023-01-29T09:05:36;5.95;;;4.00;;
76127;SDS011;64873;50.102;14.434;2023-01-29T09:08:03;8.52;;;5.03;;
76127;SDS011;64873;50.102;14.434;2023-01-29T09:10:29;9.40;;;4.82;;
76127;SDS011;64873;50.102;14.434;2023-01-29T09:12:55;8.32;;;3.60;;
76127;SDS011;64873;50.102;14.434;2023-01-29T09:15:20;8.10;;;5.00;;
76127;SDS011;64873;50.102;14.434;2023-01-29T09:17:46;8.55;;;5.00;;
76127;SDS011;64873;50.102;14.434;2023-01-29T09:20:13;8.25;;;4.30;;
76127;SDS011;64873;50.102;14.434;2023-01-29T09:22:39;8.32;;;4.05;;
76127;SDS011;64873;50.102;14.434;2023-01-29T09:25:04;7.50;;;4.97;;
76127;SDS011;64873;50.102;14.434;2023-01-29T09:27:30;10.02;;;5.40;;
76127;SDS011;64873;50.102;14.434;2023-01-29T09:29:55;5.85;;;4.45;;
76127;SDS011;64873;50.102;14.434;2023-01-29T09:32:21;12.77;;;5.32;;
76127;SDS011;64873;50.102;14.434;2023-01-29T09:34:46;13.23;;;7.05;;
76127;SDS011;64873;50.102;14.434;2023-01-29T09:37:11;6.68;;;4.05;;
76127;SDS011;64873;50.102;14.434;2023-01-29T09:39:37;6.28;;;4.47;;
76127;SDS011;64873;50.102;14.434;2023-01-29T09:42:23;7.90;;;4.13;;
76127;SDS011;64873;50.102;14.434;2023-01-29T09:47:36;11.80;;;5.28;;
76127;SDS011;64873;50.102;14.434;2023-01-29T09:50:04;8.02;;;5.05;;
76127;SDS011;64873;50.102;14.434;2023-01-29T09:52:37;10.15;;;5.68;;
76127;SDS011;64873;50.102;14.434;2023-01-29T09:57:40;10.68;;;6.25;;
76127;SDS011;64873;50.102;14.434;2023-01-29T10:11:31;10.35;;;6.10;;
76127;SDS011;64873;50.102;14.434;2023-01-29T10:14:18;9.45;;;5.55;;
76127;SDS011;64873;50.102;14.434;2023-01-29T10:27:16;6.70;;;4.97;;
76127;SDS011;64873;50.102;14.434;2023-01-29T10:29:43;8.27;;;5.35;;
76127;SDS011;64873;50.102;14.434;2023-01-29T10:32:21;9.18;;;6.10;;
76127;SDS011;64873;50.102;14.434;2023-01-29T10:37:22;11.02;;;6.30;;
76127;SDS011;64873;50.102;14.434;2023-01-29T10:40:05;10.10;;;6.28;;
76127;SDS011;64873;50.102;14.434;2023-01-29T10:42:51;11.90;;;6.13;;
76127;SDS011;64873;50.102;14.434;2023-01-29T10:51:15;8.38;;;5.40;;
76127;SDS011;64873;50.102;14.434;2023-01-29T10:58:58;7.95;;;5.45;;
76127;SDS011;64873;50.102;14.434;2023-01-29T11:01:32;9.55;;;5.82;;
76127;SDS011;64873;50.102;14.434;2023-01-29T11:04:01;10.98;;;5.82;;
76127;SDS011;64873;50.102;14.434;2023-01-29T11:11:49;7.40;;;5.15;;
76127;SDS011;64873;50.102;14.434;2023-01-29T11:14:23;7.90;;;4.82;;
76127;SDS011;64873;50.102;14.434;2023-01-29T11:16:52;10.77;;;5.75;;
76127;SDS011;64873;50.102;14.434;2023-01-29T11:19:17;8.05;;;5.20;;
76127;SDS011;64873;50.102;14.434;2023-01-29T11:22:01;7.60;;;5.15;;
76127;SDS011;64873;50.102;14.434;2023-01-29T11:24:28;11.23;;;6.13;;
76127;SDS011;64873;50.102;14.434;2023-01-29T11:26:55;8.45;;;5.70;;
76127;SDS011;64873;50.102;14.434;2023-01-29T11:31:51;8.50;;;5.22;;
76127;SDS011;64873;50.102;14.434;2023-01-29T11:34:21;8.82;;;5.18;;
76127;SDS011;64873;50.102;14.434;2023-01-29T11:36:57;14.25;;;6.65;;
76127;SDS011;64873;50.102;14.434;2023-01-29T11:39:28;9.35;;;5.65;;
76127;SDS011;64873;50.102;14.434;2023-01-29T11:41:59;8.43;;;5.13;;
76127;SDS011;64873;50.102;14.434;2023-01-29T11:44:32;9.32;;;5.72;;
76127;SDS011;64873;50.102;14.434;2023-01-29T11:47:17;11.02;;;5.68;;
76127;SDS011;64873;50.102;14.434;2023-01-29T11:52:12;9.50;;;5.00;;
76127;SDS011;64873;50.102;14.434;2023-01-29T11:54:44;10.23;;;5.90;;
76127;SDS011;64873;50.102;14.434;2023-01-29T11:57:33;8.63;;;5.38;;
76127;SDS011;64873;50.102;14.434;2023-01-29T12:00:02;8.35;;;5.28;;
76127;SDS011;64873;50.102;14.434;2023-01-29T12:02:37;10.15;;;6.00;;
76127;SDS011;64873;50.102;14.434;2023-01-29T12:05:15;11.32;;;5.55;;
76127;SDS011;64873;50.102;14.434;2023-01-29T12:07:43;11.68;;;5.88;;
76127;SDS011;64873;50.102;14.434;2023-01-29T12:10:28;13.13;;;5.65;;
76127;SDS011;64873;50.102;14.434;2023-01-29T12:13:04;8.55;;;5.55;;
76127;SDS011;64873;50.102;14.434;2023-01-29T12:15:31;8.90;;;5.18;;
76127;SDS011;64873;50.102;14.434;2023-01-29T12:18:00;10.13;;;5.97;;
76127;SDS011;64873;50.102;14.434;2023-01-29T12:20:37;8.88;;;5.35;;
76127;SDS011;64873;50.102;14.434;2023-01-29T12:25:46;7.47;;;5.35;;
76127;SDS011;64873;50.102;14.434;2023-01-29T12:28:18;8.15;;;5.65;;
76127;SDS011;64873;50.102;14.434;2023-01-29T12:33:48;8.15;;;5.05;;
76127;SDS011;64873;50.102;14.434;2023-01-29T12:39:01;9.25;;;5.28;;
76127;SDS011;64873;50.102;14.434;2023-01-29T12:41:29;9.50;;;5.63;;
76127;SDS011;64873;50.102;14.434;2023-01-29T12:44:10;10.77;;;5.10;;
76127;SDS011;64873;50.102;14.434;2023-01-29T12:46:47;8.13;;;5.13;;
76127;SDS011;64873;50.102;14.434;2023-01-29T12:49:17;8.90;;;5.25;;
76127;SDS011;64873;50.102;14.434;2023-01-29T12:51:50;9.40;;;5.38;;
76127;SDS011;64873;50.102;14.434;2023-01-29T12:54:22;9.73;;;5.22;;
76127;SDS011;64873;50.102;14.434;2023-01-29T12:56:55;9.38;;;5.47;;
76127;SDS011;64873;50.102;14.434;2023-01-29T12:59:31;6.82;;;5.03;;
76127;SDS011;64873;50.102;14.434;2023-01-29T13:02:17;9.57;;;5.60;;
76127;SDS011;64873;50.102;14.434;2023-01-29T13:04:47;7.63;;;5.07;;
76127;SDS011;64873;50.102;14.434;2023-01-29T13:07:26;10.45;;;5.50;;
76127;SDS011;64873;50.102;14.434;2023-01-29T13:10:30;9.60;;;5.57;;
76127;SDS011;64873;50.102;14.434;2023-01-29T13:12:54;10.82;;;5.85;;
76127;SDS011;64873;50.102;14.434;2023-01-29T13:15:30;11.52;;;6.10;;
76127;SDS011;64873;50.102;14.434;2023-01-29T13:18:45;9.90;;;5.47;;
76127;SDS011;64873;50.102;14.434;2023-01-29T13:21:01;12.40;;;6.82;;
76127;SDS011;64873;50.102;14.434;2023-01-29T13:23:36;12.15;;;6.00;;
76127;SDS011;64873;50.102;14.434;2023-01-29T13:26:15;8.98;;;5.78;;
76127;SDS011;64873;50.102;14.434;2023-01-29T13:28:41;11.23;;;6.07;;
76127;SDS011;64873;50.102;14.434;2023-01-29T13:31:13;13.38;;;5.93;;
76127;SDS011;64873;50.102;14.434;2023-01-29T13:33:54;11.60;;;6.28;;
76127;SDS011;64873;50.102;14.434;2023-01-29T13:36:28;11.93;;;6.32;;
76127;SDS011;64873;50.102;14.434;2023-01-29T13:38:57;10.57;;;6.50;;
76127;SDS011;64873;50.102;14.434;2023-01-29T13:41:33;11.90;;;6.88;;
76127;SDS011;64873;50.102;14.434;2023-01-29T13:44:03;12.32;;;6.22;;
76127;SDS011;64873;50.102;14.434;2023-01-29T13:46:31;15.07;;;6.47;;
76127;SDS011;64873;50.102;14.434;2023-01-29T13:48:57;10.63;;;6.45;;
76127;SDS011;64873;50.102;14.434;2023-01-29T13:51:30;9.77;;;6.18;;
76127;SDS011;64873;50.102;14.434;2023-01-29T13:54:07;12.93;;;6.78;;
76127;SDS011;64873;50.102;14.434;2023-01-29T13:56:46;10.98;;;6.03;;
76127;SDS011;64873;50.102;14.434;2023-01-29T14:00:08;9.43;;;6.22;;
76127;SDS011;64873;50.102;14.434;2023-01-29T14:02:26;12.57;;;6.20;;
76127;SDS011;64873;50.102;14.434;2023-01-29T14:08:00;12.07;;;6.95;;
76127;SDS011;64873;50.102;14.434;2023-01-29T14:10:28;9.38;;;6.45;;
76127;SDS011;64873;50.102;14.434;2023-01-29T14:13:37;13.13;;;6.65;;
76127;SDS011;64873;50.102;14.434;2023-01-29T14:18:22;15.07;;;6.57;;
76127;SDS011;64873;50.102;14.434;2023-01-29T14:20:55;11.20;;;6.85;;
76127;SDS011;64873;50.102;14.434;2023-01-29T14:23:29;11.07;;;6.30;;
76127;SDS011;64873;50.102;14.434;2023-01-29T14:26:00;12.90;;;6.43;;
76127;SDS011;64873;50.102;14.434;2023-01-29T14:28:29;11.65;;;6.38;;
76127;SDS011;64873;50.102;14.434;2023-01-29T14:30:57;9.30;;;5.78;;
76127;SDS011;64873;50.102;14.434;2023-01-29T14:33:27;12.55;;;6.30;;
76127;SDS011;64873;50.102;14.434;2023-01-29T14:35:59;9.07;;;6.38;;
76127;SDS011;64873;50.102;14.434;2023-01-29T14:38:29;9.27;;;6.00;;
76127;SDS011;64873;50.102;14.434;2023-01-29T14:41:04;12.40;;;6.97;;
76127;SDS011;64873;50.102;14.434;2023-01-29T14:43:40;13.55;;;6.60;;
76127;SDS011;64873;50.102;14.434;2023-01-29T14:48:59;9.95;;;6.22;;
76127;SDS011;64873;50.102;14.434;2023-01-29T14:51:25;12.13;;;6.60;;
76127;SDS011;64873;50.102;14.434;2023-01-29T14:53:57;15.55;;;6.82;;
76127;SDS011;64873;50.102;14.434;2023-01-29T14:56:28;13.27;;;6.28;;
76127;SDS011;64873;50.102;14.434;2023-01-29T15:01:55;12.90;;;6.47;;
76127;SDS011;64873;50.102;14.434;2023-01-29T15:04:46;12.15;;;7.60;;
76127;SDS011;64873;50.102;14.434;2023-01-29T15:07:22;11.45;;;7.30;;
76127;SDS011;64873;50.102;14.434;2023-01-29T15:10:10;14.38;;;8.60;;
76127;SDS011;64873;50.102;14.434;2023-01-29T15:13:03;18.88;;;7.45;;
76127;SDS011;64873;50.102;14.434;2023-01-29T15:15:55;14.40;;;8.07;;
76127;SDS011;64873;50.102;14.434;2023-01-29T15:18:41;12.30;;;7.05;;
76127;SDS011;64873;50.102;14.434;2023-01-29T15:21:11;15.48;;;7.15;;
76127;SDS011;64873;50.102;14.434;2023-01-29T15:23:39;10.80;;;6.63;;
76127;SDS011;64873;50.102;14.434;2023-01-29T15:26:18;14.30;;;7.70;;
76127;SDS011;64873;50.102;14.434;2023-01-29T15:28:53;10.40;;;6.38;;
76127;SDS011;64873;50.102;14.434;2023-01-29T15:31:19;13.23;;;6.53;;
76127;SDS011;64873;50.102;14.434;2023-01-29T15:33:45;13.32;;;7.55;;
76127;SDS011;64873;50.102;14.434;2023-01-29T15:36:17;16.02;;;6.72;;
76127;SDS011;64873;50.102;14.434;2023-01-29T15:38:46;14.05;;;5.72;;
76127;SDS011;64873;50.102;14.434;2023-01-29T15:43:47;12.32;;;6.80;;
76127;SDS011;64873;50.102;14.434;2023-01-29T15:46:24;13.38;;;6.60;;
76127;SDS011;64873;50.102;14.434;2023-01-29T15:49:05;13.50;;;7.55;;
76127;SDS011;64873;50.102;14.434;2023-01-29T15:51:34;16.35;;;6.90;;
76127;SDS011;64873;50.102;14.434;2023-01-29T15:56:34;11.63;;;5.88;;
76127;SDS011;64873;50.102;14.434;2023-01-29T15:59:04;9.68;;;6.38;;
76127;SDS011;64873;50.102;14.434;2023-01-29T16:01:31;13.63;;;7.60;;
76127;SDS011;64873;50.102;14.434;2023-01-29T16:03:57;16.75;;;7.03;;
76127;SDS011;64873;50.102;14.434;2023-01-29T16:06:36;18.92;;;7.25;;
76127;SDS011;64873;50.102;14.434;2023-01-29T16:09:05;10.68;;;7.13;;
76127;SDS011;64873;50.102;14.434;2023-01-29T16:11:32;10.93;;;6.75;;
76127;SDS011;64873;50.102;14.434;2023-01-29T16:14:01;11.90;;;7.43;;
76127;SDS011;64873;50.102;14.434;2023-01-29T16:16:27;11.60;;;6.68;;
76127;SDS011;64873;50.102;14.434;2023-01-29T16:18:53;14.25;;;8.07;;
76127;SDS011;64873;50.102;14.434;2023-01-29T16:24:10;13.50;;;7.68;;
76127;SDS011;64873;50.102;14.434;2023-01-29T16:26:43;13.05;;;7.55;;
76127;SDS011;64873;50.102;14.434;2023-01-29T16:29:19;13.50;;;7.30;;
76127;SDS011;64873;50.102;14.434;2023-01-29T16:31:52;16.20;;;7.95;;
76127;SDS011;64873;50.102;14.434;2023-01-29T16:36:49;15.23;;;8.57;;
76127;SDS011;64873;50.102;14.434;2023-01-29T16:39:17;18.38;;;8.13;;
76127;SDS011;64873;50.102;14.434;2023-01-29T16:41:47;18.02;;;8.25;;
76127;SDS011;64873;50.102;14.434;2023-01-29T16:44:37;14.23;;;7.97;;
76127;SDS011;64873;50.102;14.434;2023-01-29T16:47:10;14.10;;;7.93;;
76127;SDS011;64873;50.102;14.434;2023-01-29T16:50:02;15.23;;;8.30;;
76127;SDS011;64873;50.102;14.434;2023-01-29T16:52:29;13.70;;;7.95;;
76127;SDS011;64873;50.102;14.434;2023-01-29T16:55:00;14.32;;;7.97;;
76127;SDS011;64873;50.102;14.434;2023-01-29T16:57:43;15.68;;;7.72;;
76127;SDS011;64873;50.102;14.434;2023-01-29T17:00:33;14.43;;;7.78;;
76127;SDS011;64873;50.102;14.434;2023-01-29T17:02:59;19.25;;;8.50;;
76127;SDS011;64873;50.102;14.434;2023-01-29T17:05:29;17.42;;;9.07;;
76127;SDS011;64873;50.102;14.434;2023-01-29T17:07:57;16.98;;;8.70;;
76127;SDS011;64873;50.102;14.434;2023-01-29T17:10:24;19.20;;;9.75;;